Brewerton, New York
Current Conditions -  °F | °C
As of 11:15 PM on Wednesday 17 Dec 2014 (Local Time) from KSYR Reporting Station
Light Snow Light Snow  
Wind Chill: 21°   Ceiling: 1400
Heat Index: 32°   Visibility: 3mi
Dew Point: 31°   Wind: 17mph
Humidity: 96%   Direction: 260°W
Pressure: 29.91"   Gusts: 26mph
Location:  43.24°N, 76.14°W
Report Text: KSYR 180415Z 26015G23KT 3SM -SN BR BKN014 OVC021 00/M01 A2991 RMK AO2 VIS 2 NW P0000 T00001006 $
Loading
Personal Weather Stations






























Interactive Weather Map New forecast layout! Learn more

10-Day Weather Forecast

Advertisements
Track Severe Weather on mobile